Time;durP1;ratioP1;P1;durP2;ratioP2;P2;SDS_P1;SDS_P2;PMS_P1;PMS_P2;Temp;Humidity;BMP_temperature;BMP_pressure;BME280_temperature;BME280_humidity;BME280_pressure;Samples;Min_cycle;Max_cycle;Signal;HPM_P1;HPM_P2
2021/11/01 00:01:03;;;;;;;1.45;1.35;;;;;;;;;;5075269;28;20680;-84
2021/11/01 00:03:32;;;;;;;1.33;1.30;;;;;;;;;;5074720;28;20196;-85
2021/11/01 00:06:00;;;;;;;1.70;1.60;;;;;;;;;;5074909;28;20247;-85
2021/11/01 00:08:27;;;;;;;1.30;1.20;;;;;;;;;;5074851;28;20217;-86
2021/11/01 00:10:55;;;;;;;1.30;1.20;;;;;;;;;;5074708;28;20181;-85
2021/11/01 00:13:22;;;;;;;1.13;1.00;;;;;;;;;;5074366;28;20207;-85
2021/11/01 00:15:51;;;;;;;1.10;1.02;;;;;;;;;;5074497;28;20185;-85
2021/11/01 00:18:19;;;;;;;0.60;0.60;;;;;;;;;;5074195;28;20252;-85
2021/11/01 00:20:48;;;;;;;0.70;0.70;;;;;;;;;;5074741;28;20201;-86
2021/11/01 00:23:16;;;;;;;0.70;0.70;;;;;;;;;;5074594;28;20284;-86
2021/11/01 00:25:43;;;;;;;0.95;0.95;;;;;;;;;;5073973;28;20183;-86
2021/11/01 00:28:14;;;;;;;0.93;0.80;;;;;;;;;;5073990;28;20648;-86
2021/11/01 00:30:42;;;;;;;0.80;0.80;;;;;;;;;;5066512;28;20249;-86
2021/11/01 00:33:10;;;;;;;0.90;0.90;;;;;;;;;;5073654;28;20201;-86
2021/11/01 00:35:42;;;;;;;0.85;0.73;;;;;;;;;;5073884;28;20580;-85
2021/11/01 00:38:11;;;;;;;0.95;0.95;;;;;;;;;;5073214;28;20239;-85
2021/11/01 00:40:39;;;;;;;0.80;0.80;;;;;;;;;;5073619;28;20185;-86
2021/11/01 00:43:08;;;;;;;0.70;0.70;;;;;;;;;;5073954;28;20236;-86
2021/11/01 00:45:37;;;;;;;0.70;0.70;;;;;;;;;;5062692;28;20718;-85
2021/11/01 00:48:05;;;;;;;0.50;0.50;;;;;;;;;;5052599;28;20196;-85
2021/11/01 00:50:36;;;;;;;0.60;0.60;;;;;;;;;;5053922;28;20190;-85
2021/11/01 00:53:06;;;;;;;0.93;0.93;;;;;;;;;;5053231;28;20634;-86
2021/11/01 00:55:37;;;;;;;0.60;0.60;;;;;;;;;;5053550;28;20598;-86
2021/11/01 00:58:06;;;;;;;0.77;0.60;;;;;;;;;;5055374;28;20242;-85
2021/11/01 01:00:35;;;;;;;0.40;0.40;;;;;;;;;;5056969;28;20599;-84
2021/11/01 01:03:02;;;;;;;0.50;0.50;;;;;;;;;;5057383;28;20201;-86
2021/11/01 01:05:30;;;;;;;1.15;0.50;;;;;;;;;;5057419;28;20178;-85
2021/11/01 01:07:57;;;;;;;1.85;1.08;;;;;;;;;;5057454;28;20186;-85
2021/11/01 01:10:26;;;;;;;1.75;1.05;;;;;;;;;;5057236;28;20578;-85
2021/11/01 01:12:55;;;;;;;0.60;0.60;;;;;;;;;;5056795;28;20209;-85
2021/11/01 01:15:25;;;;;;;0.75;0.50;;;;;;;;;;5057174;28;20202;-85
2021/11/01 01:17:59;;;;;;;0.65;0.45;;;;;;;;;;5056744;28;20206;-85
2021/11/01 01:20:27;;;;;;;0.57;0.57;;;;;;;;;;5057115;28;20208;-84
2021/11/01 01:22:55;;;;;;;0.85;0.85;;;;;;;;;;5056770;28;20178;-85
2021/11/01 01:25:38;;;;;;;0.90;0.73;;;;;;;;;;5056233;28;20201;-84
2021/11/01 01:28:14;;;;;;;0.43;0.43;;;;;;;;;;5055616;28;20208;-85
2021/11/01 01:30:42;;;;;;;0.70;0.70;;;;;;;;;;5056746;28;20186;-85
2021/11/01 01:33:10;;;;;;;0.45;0.45;;;;;;;;;;5056856;28;20186;-85
2021/11/01 01:35:41;;;;;;;0.47;0.47;;;;;;;;;;5056309;28;20227;-85
2021/11/01 01:38:13;;;;;;;0.60;0.60;;;;;;;;;;5056619;28;20693;-84
2021/11/01 01:40:41;;;;;;;0.50;0.50;;;;;;;;;;5056649;28;20642;-85
2021/11/01 01:43:10;;;;;;;0.73;0.73;;;;;;;;;;5056293;28;20669;-84
2021/11/01 01:45:38;;;;;;;1.02;0.50;;;;;;;;;;5056362;28;20212;-84
2021/11/01 01:48:06;;;;;;;0.50;0.50;;;;;;;;;;5056275;28;20190;-85
2021/11/01 01:50:35;;;;;;;0.70;0.70;;;;;;;;;;5055920;28;20221;-84
2021/11/01 01:53:03;;;;;;;0.50;0.50;;;;;;;;;;5055933;28;20737;-85
2021/11/01 01:55:33;;;;;;;0.60;0.60;;;;;;;;;;5055414;28;20205;-84
2021/11/01 01:58:03;;;;;;;0.80;0.80;;;;;;;;;;5055577;28;20225;-85
2021/11/01 02:00:47;;;;;;;0.93;0.90;;;;;;;;;;5055868;28;20225;-85
2021/11/01 02:03:14;;;;;;;0.70;0.70;;;;;;;;;;5056289;28;20201;-85
2021/11/01 02:05:50;;;;;;;2.30;1.02;;;;;;;;;;5056148;28;20193;-85
2021/11/01 02:08:19;;;;;;;0.45;0.45;;;;;;;;;;5055338;28;20240;-85
2021/11/01 02:10:55;;;;;;;1.50;0.60;;;;;;;;;;5055977;28;20257;-85
2021/11/01 02:13:27;;;;;;;0.55;0.40;;;;;;;;;;5055916;28;20186;-85
2021/11/01 02:16:00;;;;;;;0.47;0.47;;;;;;;;;;5055990;28;20182;-85
2021/11/01 02:18:32;;;;;;;0.43;0.43;;;;;;;;;;5056250;28;20226;-85
2021/11/01 02:21:18;;;;;;;1.33;0.77;;;;;;;;;;5055945;28;20261;-85
2021/11/01 02:23:53;;;;;;;0.38;0.38;;;;;;;;;;5056149;28;20178;-84
2021/11/01 02:26:23;;;;;;;1.63;0.65;;;;;;;;;;5055952;28;20663;-85
2021/11/01 02:28:51;;;;;;;0.73;0.73;;;;;;;;;;5056198;28;20227;-85
2021/11/01 02:31:21;;;;;;;0.30;0.30;;;;;;;;;;5055658;28;20190;-85
2021/11/01 02:33:51;;;;;;;0.45;0.45;;;;;;;;;;5056314;28;20560;-84
2021/11/01 02:36:20;;;;;;;0.30;0.30;;;;;;;;;;5055828;28;20178;-85
2021/11/01 02:38:50;;;;;;;0.68;0.68;;;;;;;;;;5055352;28;20225;-85
2021/11/01 02:41:25;;;;;;;1.77;0.70;;;;;;;;;;5056617;28;20190;-84
2021/11/01 02:43:55;;;;;;;1.35;0.77;;;;;;;;;;5055663;28;20196;-85
2021/11/01 02:46:24;;;;;;;1.40;0.60;;;;;;;;;;5056022;28;20288;-85
2021/11/01 02:48:54;;;;;;;0.55;0.55;;;;;;;;;;5054995;28;20224;-85
2021/11/01 02:51:24;;;;;;;1.27;0.75;;;;;;;;;;5055418;28;20181;-85
2021/11/01 02:53:52;;;;;;;1.58;0.90;;;;;;;;;;5055734;28;20208;-85
2021/11/01 02:56:22;;;;;;;0.85;0.85;;;;;;;;;;5055734;28;20196;-85
2021/11/01 02:58:50;;;;;;;0.73;0.73;;;;;;;;;;5054879;28;20225;-85
2021/11/01 03:01:20;;;;;;;1.10;0.80;;;;;;;;;;5055554;28;20201;-84
2021/11/01 03:03:48;;;;;;;0.98;0.98;;;;;;;;;;5055354;28;20190;-85
2021/11/01 03:06:19;;;;;;;0.60;0.60;;;;;;;;;;5055205;28;20192;-85
2021/11/01 03:08:48;;;;;;;0.93;0.70;;;;;;;;;;5054529;28;20222;-85
2021/11/01 03:11:16;;;;;;;0.60;0.60;;;;;;;;;;5055123;28;20186;-85
2021/11/01 03:13:45;;;;;;;1.02;0.90;;;;;;;;;;5055180;28;20793;-85
2021/11/01 03:16:13;;;;;;;1.42;0.80;;;;;;;;;;5055561;28;20186;-85
2021/11/01 03:18:53;;;;;;;0.88;0.80;;;;;;;;;;5056223;28;20225;-84
2021/11/01 03:21:22;;;;;;;0.73;0.73;;;;;;;;;;5058966;28;20593;-84
2021/11/01 03:23:50;;;;;;;0.77;0.70;;;;;;;;;;5064132;28;20188;-83
2021/11/01 03:26:23;;;;;;;0.60;0.60;;;;;;;;;;5062643;28;20316;-84
2021/11/01 03:28:55;;;;;;;1.70;0.80;;;;;;;;;;5055703;28;20226;-85
2021/11/01 03:31:25;;;;;;;0.75;0.75;;;;;;;;;;5055312;28;20560;-85
2021/11/01 03:33:53;;;;;;;0.77;0.70;;;;;;;;;;5056669;28;20269;-84
2021/11/01 03:36:22;;;;;;;0.82;0.82;;;;;;;;;;5055882;28;20190;-85
2021/11/01 03:38:51;;;;;;;0.98;0.68;;;;;;;;;;5055785;28;20230;-85
2021/11/01 03:41:22;;;;;;;0.88;0.88;;;;;;;;;;5058023;28;20221;-84
2021/11/01 03:43:58;;;;;;;2.55;1.48;;;;;;;;;;5064157;28;20185;-83
2021/11/01 03:46:35;;;;;;;1.90;0.85;;;;;;;;;;5061962;28;20189;-83
2021/11/01 03:49:04;;;;;;;1.08;0.63;;;;;;;;;;5062893;28;20225;-83
2021/11/01 03:51:45;;;;;;;1.08;0.98;;;;;;;;;;5062016;28;20200;-83
2021/11/01 03:54:16;;;;;;;4.50;1.27;;;;;;;;;;5056931;28;20213;-84
2021/11/01 03:56:45;;;;;;;1.35;0.85;;;;;;;;;;5056289;28;20186;-83
2021/11/01 03:59:15;;;;;;;1.58;0.70;;;;;;;;;;5055683;28;20256;-84
2021/11/01 04:01:45;;;;;;;1.58;0.85;;;;;;;;;;5053607;28;20197;-84
2021/11/01 04:04:15;;;;;;;0.70;0.60;;;;;;;;;;5053168;28;20277;-84
2021/11/01 04:06:45;;;;;;;1.58;1.10;;;;;;;;;;5053442;28;20192;-84
2021/11/01 04:09:16;;;;;;;2.35;1.45;;;;;;;;;;5053381;28;20245;-83
2021/11/01 04:11:49;;;;;;;2.13;1.08;;;;;;;;;;5053338;28;20630;-83
2021/11/01 04:14:21;;;;;;;2.78;0.90;;;;;;;;;;5052728;28;20206;-83
2021/11/01 04:16:52;;;;;;;0.80;0.80;;;;;;;;;;5052933;28;20186;-85
2021/11/01 04:19:33;;;;;;;0.75;0.73;;;;;;;;;;5052817;28;20230;-84
2021/11/01 04:22:04;;;;;;;0.75;0.75;;;;;;;;;;5052932;28;20285;-86
2021/11/01 04:24:33;;;;;;;1.77;1.10;;;;;;;;;;5053301;28;20194;-84
2021/11/01 04:27:03;;;;;;;0.77;0.77;;;;;;;;;;5052702;28;20197;-85
2021/11/01 04:29:34;;;;;;;3.72;1.83;;;;;;;;;;5052788;28;20224;-82
2021/11/01 04:32:12;;;;;;;2.40;1.20;;;;;;;;;;5054119;28;20624;-85
2021/11/01 04:34:44;;;;;;;1.35;0.93;;;;;;;;;;5057383;28;20586;-84
2021/11/01 04:37:17;;;;;;;1.63;0.65;;;;;;;;;;5057025;28;20185;-83
2021/11/01 04:39:58;;;;;;;1.05;1.00;;;;;;;;;;5057126;28;20217;-84
2021/11/01 04:42:50;;;;;;;1.27;1.17;;;;;;;;;;5057331;28;20580;-82
2021/11/01 04:53:42;;;;;;;1.10;1.00;;;;;;;;;;5039345;28;20621;-85
2021/11/01 04:56:11;;;;;;;1.70;0.85;;;;;;;;;;5058106;28;20197;-85
2021/11/01 04:58:42;;;;;;;2.30;1.33;;;;;;;;;;5057613;28;20317;-84
2021/11/01 05:01:11;;;;;;;2.20;1.95;;;;;;;;;;5056892;28;20719;-84
2021/11/01 05:03:41;;;;;;;2.40;1.05;;;;;;;;;;5057997;28;20182;-85
2021/11/01 05:06:10;;;;;;;3.78;1.30;;;;;;;;;;5057182;28;20206;-84
2021/11/01 05:08:44;;;;;;;2.33;1.27;;;;;;;;;;5057838;28;20248;-85
2021/11/01 05:11:21;;;;;;;2.50;1.35;;;;;;;;;;5058079;28;20601;-85
2021/11/01 05:13:49;;;;;;;3.53;1.33;;;;;;;;;;5058070;28;20190;-85
2021/11/01 05:16:21;;;;;;;3.15;1.83;;;;;;;;;;5058300;28;20247;-84
2021/11/01 05:19:01;;;;;;;2.22;1.40;;;;;;;;;;5057292;28;20569;-84
2021/11/01 05:21:32;;;;;;;2.72;1.20;;;;;;;;;;5058248;28;20272;-85
2021/11/01 05:24:03;;;;;;;1.77;0.93;;;;;;;;;;5057116;28;20717;-84
2021/11/01 05:26:49;;;;;;;1.50;1.10;;;;;;;;;;5057350;28;20198;-85
2021/11/01 05:29:17;;;;;;;6.15;1.30;;;;;;;;;;5057099;28;20218;-84
2021/11/01 05:31:49;;;;;;;3.08;1.40;;;;;;;;;;5057287;28;20214;-85
2021/11/01 05:34:17;;;;;;;1.38;0.90;;;;;;;;;;5057859;28;20187;-85
2021/11/01 05:36:45;;;;;;;1.30;1.00;;;;;;;;;;5058552;28;20206;-84
2021/11/01 05:39:14;;;;;;;1.23;1.13;;;;;;;;;;5058029;28;20221;-85
2021/11/01 05:41:44;;;;;;;1.75;0.90;;;;;;;;;;5057440;28;20209;-85
2021/11/01 05:44:13;;;;;;;2.17;1.23;;;;;;;;;;5057291;28;20212;-84
2021/11/01 05:46:45;;;;;;;1.05;0.95;;;;;;;;;;5057590;28;20206;-85
2021/11/01 05:49:16;;;;;;;2.10;1.63;;;;;;;;;;5059428;28;20268;-85
2021/11/01 05:51:44;;;;;;;3.60;1.38;;;;;;;;;;5059134;28;20197;-85
2021/11/01 05:54:15;;;;;;;0.95;0.90;;;;;;;;;;5059532;28;20530;-85
2021/11/01 05:56:49;;;;;;;1.33;1.20;;;;;;;;;;5059925;28;20289;-83
2021/11/01 05:59:39;;;;;;;1.17;0.93;;;;;;;;;;5057997;28;20229;-83
2021/11/01 06:02:23;;;;;;;0.77;0.73;;;;;;;;;;5057470;28;20225;-85
2021/11/01 06:04:59;;;;;;;0.70;0.70;;;;;;;;;;5057888;28;20193;-84
2021/11/01 06:07:32;;;;;;;1.02;0.90;;;;;;;;;;5057135;28;20198;-84
2021/11/01 06:10:06;;;;;;;0.88;0.77;;;;;;;;;;5057506;28;20222;-84
2021/11/01 06:15:19;;;;;;;1.08;0.98;;;;;;;;;;5057513;28;20645;-85
2021/11/01 06:17:47;;;;;;;2.30;1.13;;;;;;;;;;5057566;28;20198;-83
2021/11/01 06:20:16;;;;;;;1.45;1.00;;;;;;;;;;5057229;28;20710;-84
2021/11/01 06:22:43;;;;;;;1.15;0.95;;;;;;;;;;5056891;28;20240;-84
2021/11/01 06:25:14;;;;;;;1.90;1.05;;;;;;;;;;5056721;28;20716;-83
2021/11/01 06:27:42;;;;;;;1.00;0.90;;;;;;;;;;5056877;28;20186;-83
2021/11/01 06:30:17;;;;;;;1.48;1.20;;;;;;;;;;5056887;28;20218;-85
2021/11/01 06:32:46;;;;;;;2.17;0.90;;;;;;;;;;5056228;28;20267;-85
2021/11/01 06:40:58;;;;;;;3.22;1.63;;;;;;;;;;5052000;28;20212;-83
2021/11/01 06:43:27;;;;;;;2.45;1.02;;;;;;;;;;5058906;28;20744;-83
2021/11/01 06:46:17;;;;;;;0.93;0.80;;;;;;;;;;5058841;28;20830;-84
2021/11/01 06:51:50;;;;;;;1.00;0.90;;;;;;;;;;5058048;28;20188;-83
2021/11/01 06:54:36;;;;;;;2.78;1.20;;;;;;;;;;5057792;28;20206;-84
2021/11/01 06:57:24;;;;;;;1.60;0.93;;;;;;;;;;5060070;28;20288;-83
2021/11/01 07:16:41;;;;;;;1.67;1.20;;;;;;;;;;5044590;28;20190;-82
2021/11/01 07:19:14;;;;;;;6.15;1.20;;;;;;;;;;5059556;28;20229;-82
2021/11/01 07:22:12;;;;;;;1.73;1.20;;;;;;;;;;5062258;28;20202;-83
2021/11/01 07:25:05;;;;;;;1.33;1.08;;;;;;;;;;5064183;28;20182;-83
2021/11/01 07:30:55;;;;;;;2.40;1.15;;;;;;;;;;5064464;28;20204;-82
2021/11/01 08:23:30;;;;;;;2.60;1.05;;;;;;;;;;5094807;28;20304;-82
2021/11/01 08:40:02;;;;;;;2.92;1.15;;;;;;;;;;5018017;28;20221;-82
2021/11/01 08:51:04;;;;;;;1.30;1.20;;;;;;;;;;5045778;28;20256;-82
2021/11/01 09:04:45;;;;;;;0.98;0.85;;;;;;;;;;5053530;28;20547;-83
2021/11/01 09:07:28;;;;;;;1.48;1.10;;;;;;;;;;5053394;28;20237;-83
2021/11/01 09:10:15;;;;;;;0.80;0.80;;;;;;;;;;5053707;28;20214;-83
2021/11/01 09:24:34;;;;;;;0.90;0.90;;;;;;;;;;5134186;27;20633;-81
2021/11/01 09:27:05;;;;;;;0.90;0.90;;;;;;;;;;5133452;27;20192;-82
2021/11/01 09:29:47;;;;;;;1.00;0.90;;;;;;;;;;5130021;27;21672;-82
2021/11/01 09:38:02;;;;;;;1.25;1.15;;;;;;;;;;5121511;28;20195;-84
2021/11/01 09:43:17;;;;;;;1.70;1.10;;;;;;;;;;5123977;28;20211;-83
2021/11/01 09:45:46;;;;;;;1.33;1.08;;;;;;;;;;5112893;28;20236;-84
2021/11/01 09:48:15;;;;;;;2.67;1.10;;;;;;;;;;5131662;27;20222;-82
2021/11/01 09:50:43;;;;;;;1.75;1.17;;;;;;;;;;5122030;27;20303;-81
2021/11/01 09:53:16;;;;;;;1.05;0.95;;;;;;;;;;5111792;28;20196;-81
2021/11/01 09:55:49;;;;;;;4.00;1.00;;;;;;;;;;5111551;28;20191;-82
2021/11/01 10:01:07;;;;;;;2.70;1.10;;;;;;;;;;5112427;28;20192;-82
2021/11/01 10:03:37;;;;;;;3.10;1.10;;;;;;;;;;5111119;28;20200;-82
2021/11/01 10:06:06;;;;;;;1.33;0.95;;;;;;;;;;5110507;28;20211;-81
2021/11/01 10:08:34;;;;;;;1.30;1.20;;;;;;;;;;5111034;28;20253;-82
2021/11/01 10:11:16;;;;;;;0.80;0.80;;;;;;;;;;5110979;28;20185;-82
2021/11/01 10:13:46;;;;;;;0.90;0.75;;;;;;;;;;5111189;28;20176;-82
2021/11/01 10:19:14;;;;;;;1.23;0.82;;;;;;;;;;5110661;28;20277;-81
2021/11/01 10:21:52;;;;;;;1.45;0.70;;;;;;;;;;5110623;28;20188;-81
2021/11/01 10:24:28;;;;;;;1.02;0.70;;;;;;;;;;5111203;28;20608;-84
2021/11/01 10:26:58;;;;;;;2.35;1.73;;;;;;;;;;5110378;28;20207;-81
2021/11/01 10:29:26;;;;;;;4.97;1.35;;;;;;;;;;5110822;28;20701;-83
2021/11/01 10:31:54;;;;;;;0.95;0.80;;;;;;;;;;5131231;27;20206;-81
2021/11/01 10:34:28;;;;;;;3.60;1.00;;;;;;;;;;5123952;27;20203;-83
2021/11/01 10:36:59;;;;;;;1.40;1.10;;;;;;;;;;5117266;28;20189;-80
2021/11/01 10:39:28;;;;;;;1.85;1.33;;;;;;;;;;5117144;28;20689;-84
2021/11/01 10:42:14;;;;;;;1.50;1.10;;;;;;;;;;5106747;28;20185;-83
2021/11/01 10:45:00;;;;;;;1.55;0.88;;;;;;;;;;5111502;28;20237;-82
2021/11/01 11:12:32;;;;;;;1.20;1.00;;;;;;;;;;5119394;28;20229;-83
2021/11/01 11:15:08;;;;;;;1.50;0.90;;;;;;;;;;5119801;28;20207;-82
2021/11/01 11:17:43;;;;;;;6.10;2.47;;;;;;;;;;5121251;28;20252;-84
2021/11/01 11:20:38;;;;;;;1.27;1.17;;;;;;;;;;5121388;27;20258;-82
2021/11/01 11:26:15;;;;;;;1.15;0.95;;;;;;;;;;5131113;28;20190;-81
2021/11/01 11:37:58;;;;;;;1.42;1.10;;;;;;;;;;5090514;28;20196;-84
2021/11/01 11:49:15;;;;;;;0.73;0.73;;;;;;;;;;5099931;28;20230;-83
2021/11/01 11:51:55;;;;;;;0.80;0.80;;;;;;;;;;5096134;28;20648;-82
2021/11/01 11:54:35;;;;;;;1.38;0.93;;;;;;;;;;5107160;28;20275;-81
2021/11/01 11:57:04;;;;;;;1.85;1.20;;;;;;;;;;5116736;28;20613;-83
2021/11/01 11:59:38;;;;;;;3.75;1.45;;;;;;;;;;5115861;28;20272;-82
2021/11/01 12:02:10;;;;;;;0.88;0.70;;;;;;;;;;5115502;28;20625;-83
2021/11/01 12:04:44;;;;;;;1.95;1.10;;;;;;;;;;5115948;28;20285;-82
2021/11/01 12:07:14;;;;;;;1.25;0.98;;;;;;;;;;5115703;28;20194;-82
2021/11/01 12:09:55;;;;;;;2.63;0.93;;;;;;;;;;5115348;28;20723;-83
2021/11/01 12:17:56;;;;;;;1.50;0.90;;;;;;;;;;5094943;28;20188;-83
2021/11/01 12:20:26;;;;;;;1.63;0.80;;;;;;;;;;5095079;28;20211;-83
2021/11/01 12:23:02;;;;;;;1.85;1.40;;;;;;;;;;5094754;28;20745;-83
2021/11/01 12:25:42;;;;;;;1.13;0.80;;;;;;;;;;5095999;28;20200;-82
2021/11/01 12:28:19;;;;;;;1.77;0.80;;;;;;;;;;5094668;28;20629;-83
2021/11/01 12:30:53;;;;;;;3.47;1.10;;;;;;;;;;5095773;28;20554;-82
2021/11/01 12:33:21;;;;;;;1.92;1.65;;;;;;;;;;5095511;28;20196;-83
2021/11/01 12:35:54;;;;;;;1.08;0.88;;;;;;;;;;5097594;28;20250;-82
2021/11/01 12:38:40;;;;;;;1.50;0.93;;;;;;;;;;5100593;28;20221;-83
2021/11/01 12:41:30;;;;;;;0.90;0.90;;;;;;;;;;5101134;28;20230;-82
2021/11/01 12:58:21;;;;;;;2.55;1.40;;;;;;;;;;5103432;28;20251;-83
2021/11/01 13:00:48;;;;;;;1.52;1.00;;;;;;;;;;5100728;28;20204;-83
2021/11/01 13:03:18;;;;;;;3.15;0.82;;;;;;;;;;5100439;28;20210;-83
2021/11/01 13:05:53;;;;;;;3.20;1.00;;;;;;;;;;5102156;28;20220;-83
2021/11/01 13:08:27;;;;;;;1.48;1.20;;;;;;;;;;5100850;28;20310;-82
2021/11/01 13:11:01;;;;;;;1.00;0.90;;;;;;;;;;5101743;28;20210;-82
2021/11/01 13:13:47;;;;;;;2.80;0.90;;;;;;;;;;5102365;28;20195;-82
2021/11/01 13:19:07;;;;;;;4.72;1.30;;;;;;;;;;5101535;28;20755;-83
2021/11/01 13:21:39;;;;;;;2.75;1.88;;;;;;;;;;5102131;28;20202;-84
2021/11/01 13:24:11;;;;;;;1.77;1.25;;;;;;;;;;5101348;28;20228;-82
2021/11/01 13:26:55;;;;;;;1.13;1.05;;;;;;;;;;5102560;28;20200;-83
2021/11/01 13:37:42;;;;;;;1.48;0.80;;;;;;;;;;5090350;28;20576;-83
2021/11/01 13:40:14;;;;;;;2.08;1.15;;;;;;;;;;5100309;28;20224;-82
2021/11/01 13:42:55;;;;;;;0.70;0.70;;;;;;;;;;5102577;28;20197;-83
2021/11/01 13:45:22;;;;;;;2.42;1.05;;;;;;;;;;5101276;28;20570;-84
2021/11/01 13:47:52;;;;;;;2.53;1.10;;;;;;;;;;5104070;28;20283;-82
2021/11/01 13:50:21;;;;;;;1.70;0.93;;;;;;;;;;5104645;28;20201;-83
2021/11/01 13:53:04;;;;;;;1.65;1.08;;;;;;;;;;5102483;28;20223;-84
2021/11/01 13:55:41;;;;;;;1.52;1.15;;;;;;;;;;5101796;28;20279;-83
2021/11/01 13:58:20;;;;;;;2.17;1.05;;;;;;;;;;5101297;28;20200;-83
2021/11/01 14:00:56;;;;;;;4.15;2.08;;;;;;;;;;5100504;28;20200;-82
2021/11/01 14:03:39;;;;;;;2.63;1.00;;;;;;;;;;5101211;28;20268;-83
2021/11/01 14:11:52;;;;;;;2.78;1.23;;;;;;;;;;5105436;28;20653;-83
2021/11/01 14:17:18;;;;;;;1.00;0.90;;;;;;;;;;5104762;28;20279;-82
2021/11/01 14:28:19;;;;;;;1.35;1.00;;;;;;;;;;5101850;28;20223;-83
2021/11/01 14:34:04;;;;;;;2.47;1.50;;;;;;;;;;5094275;28;20204;-83
2021/11/01 14:57:02;;;;;;;3.33;1.30;;;;;;;;;;5100761;28;20302;-83
2021/11/01 15:08:00;;;;;;;3.90;1.40;;;;;;;;;;5077908;28;20721;-81
2021/11/01 15:19:07;;;;;;;2.15;1.10;;;;;;;;;;5075687;28;20220;-82
2021/11/01 15:21:38;;;;;;;2.97;1.27;;;;;;;;;;5099531;28;20559;-81
2021/11/01 15:24:28;;;;;;;2.50;1.40;;;;;;;;;;5099658;28;20283;-80
2021/11/01 15:33:00;;;;;;;23.45;5.78;;;;;;;;;;5099431;28;20269;-81
2021/11/01 15:38:26;;;;;;;2.25;1.50;;;;;;;;;;5077474;28;20632;-82
2021/11/01 16:17:17;;;;;;;2.78;1.67;;;;;;;;;;5121869;28;20244;-81
2021/11/01 16:19:49;;;;;;;1.92;1.05;;;;;;;;;;5122823;28;20258;-81
2021/11/01 16:22:18;;;;;;;1.45;1.13;;;;;;;;;;5122350;28;20220;-81
2021/11/01 16:24:48;;;;;;;3.33;1.20;;;;;;;;;;5124463;28;20249;-80
2021/11/01 16:27:19;;;;;;;1.98;0.90;;;;;;;;;;5126136;28;20199;-81
2021/11/01 16:29:51;;;;;;;2.30;1.42;;;;;;;;;;5126318;28;20254;-81
2021/11/01 16:32:23;;;;;;;2.33;1.08;;;;;;;;;;5121031;28;20221;-83
2021/11/01 16:34:55;;;;;;;2.33;1.42;;;;;;;;;;5119381;28;20223;-81
2021/11/01 16:37:27;;;;;;;2.47;1.00;;;;;;;;;;5119982;27;20202;-82
2021/11/01 16:40:02;;;;;;;2.72;1.02;;;;;;;;;;5120871;28;20247;-82
2021/11/01 16:42:33;;;;;;;2.40;1.15;;;;;;;;;;5120307;28;20206;-82
2021/11/01 16:45:08;;;;;;;1.45;1.00;;;;;;;;;;5119783;28;20188;-81
2021/11/01 16:47:37;;;;;;;2.00;1.30;;;;;;;;;;5119950;28;20184;-81
2021/11/01 16:50:08;;;;;;;1.42;1.08;;;;;;;;;;5118311;28;20701;-81
2021/11/01 16:52:35;;;;;;;0.85;0.85;;;;;;;;;;5118304;28;20204;-81
2021/11/01 16:55:13;;;;;;;0.70;0.70;;;;;;;;;;5118019;28;20652;-80
2021/11/01 16:57:45;;;;;;;0.98;0.90;;;;;;;;;;5117016;28;20199;-80
2021/11/01 17:00:22;;;;;;;2.55;1.35;;;;;;;;;;5117203;28;20255;-83
2021/11/01 17:03:13;;;;;;;3.47;1.60;;;;;;;;;;5117191;28;20215;-83
2021/11/01 17:05:51;;;;;;;2.47;1.27;;;;;;;;;;5116847;28;20226;-83
2021/11/01 17:22:34;;;;;;;1.40;0.98;;;;;;;;;;5115585;28;20234;-83
2021/11/01 17:25:07;;;;;;;3.38;2.00;;;;;;;;;;5115511;28;20609;-83
2021/11/01 17:36:22;;;;;;;2.95;2.13;;;;;;;;;;5097155;28;20215;-84
2021/11/01 18:43:25;;;;;;;4.30;1.38;;;;;;;;;;5103767;27;20188;-86
2021/11/01 18:51:34;;;;;;;1.17;1.10;;;;;;;;;;5120326;28;20641;-82
2021/11/01 18:54:10;;;;;;;2.33;1.40;;;;;;;;;;5120263;28;20203;-87
2021/11/01 18:56:41;;;;;;;1.75;1.50;;;;;;;;;;5117104;28;20199;-85
2021/11/01 18:59:10;;;;;;;2.30;1.75;;;;;;;;;;5120085;28;20230;-87
2021/11/01 19:01:44;;;;;;;1.45;1.35;;;;;;;;;;5119746;28;20206;-85
2021/11/01 19:04:15;;;;;;;1.73;1.33;;;;;;;;;;5121216;28;20700;-85
2021/11/01 19:06:50;;;;;;;1.27;1.10;;;;;;;;;;5122592;27;20226;-85
2021/11/01 20:03:00;;;;;;;1.13;1.10;;;;;;;;;;5091639;28;20197;-83
2021/11/01 20:05:35;;;;;;;1.40;1.30;;;;;;;;;;5078731;28;20309;-86
2021/11/01 20:08:27;;;;;;;1.30;1.25;;;;;;;;;;5105951;28;20226;-85
2021/11/01 20:11:11;;;;;;;2.63;1.80;;;;;;;;;;5119527;28;20184;-86
2021/11/01 20:14:04;;;;;;;2.10;1.85;;;;;;;;;;5118233;28;20199;-85
2021/11/01 21:26:49;;;;;;;1.60;1.50;;;;;;;;;;5093497;28;20237;-83
2021/11/01 21:29:16;;;;;;;1.73;1.63;;;;;;;;;;5094291;28;20610;-82
2021/11/01 21:31:44;;;;;;;1.70;1.60;;;;;;;;;;5105256;28;20199;-83
2021/11/01 21:34:15;;;;;;;2.00;1.90;;;;;;;;;;5115535;28;20210;-84
2021/11/01 21:36:44;;;;;;;1.98;1.88;;;;;;;;;;5114289;28;20184;-82
2021/11/01 21:39:11;;;;;;;1.90;1.80;;;;;;;;;;5113846;28;20268;-83
2021/11/01 21:41:42;;;;;;;2.00;1.80;;;;;;;;;;5114361;28;20211;-82
2021/11/01 21:44:09;;;;;;;2.38;2.17;;;;;;;;;;5114361;28;20198;-83
2021/11/01 21:46:37;;;;;;;2.05;1.85;;;;;;;;;;5114651;28;20195;-83
2021/11/01 21:49:04;;;;;;;1.80;1.70;;;;;;;;;;5113754;28;20227;-83
2021/11/01 21:51:37;;;;;;;2.33;2.00;;;;;;;;;;5114338;28;20576;-83
2021/11/01 21:54:16;;;;;;;1.70;1.60;;;;;;;;;;5114821;28;20584;-85
2021/11/01 21:56:48;;;;;;;2.45;2.25;;;;;;;;;;5114421;28;20183;-83
2021/11/01 21:59:27;;;;;;;2.35;2.15;;;;;;;;;;5114853;28;20254;-84
2021/11/01 22:10:40;;;;;;;2.60;2.08;;;;;;;;;;5114063;28;20242;-83
2021/11/01 22:18:50;;;;;;;2.15;1.95;;;;;;;;;;5114251;28;20617;-82
2021/11/01 22:21:20;;;;;;;2.92;2.65;;;;;;;;;;5114366;28;20283;-82
2021/11/01 22:23:57;;;;;;;2.20;2.00;;;;;;;;;;5114365;28;20235;-82
2021/11/01 22:26:33;;;;;;;1.70;1.60;;;;;;;;;;5114135;28;20199;-82
2021/11/01 22:32:23;;;;;;;1.58;1.48;;;;;;;;;;5117227;28;20240;-82
2021/11/01 22:38:15;;;;;;;2.67;2.42;;;;;;;;;;5116901;28;20657;-82
2021/11/01 22:40:30;;;;;;;2.53;1.73;;;;;;;;;;5117766;28;20183;-82
2021/11/01 22:43:05;;;;;;;1.85;1.70;;;;;;;;;;5117301;28;20279;-82
2021/11/01 22:45:39;;;;;;;2.08;1.52;;;;;;;;;;5117702;28;20184;-82
2021/11/01 22:48:22;;;;;;;2.22;1.95;;;;;;;;;;5117707;28;20208;-81
2021/11/01 22:56:31;;;;;;;3.08;1.10;;;;;;;;;;5126014;28;20256;-82
2021/11/01 22:59:02;;;;;;;1.50;1.33;;;;;;;;;;5112604;28;20216;-81
2021/11/01 23:01:37;;;;;;;3.15;1.77;;;;;;;;;;5108989;28;20647;-82
2021/11/01 23:04:10;;;;;;;1.85;1.70;;;;;;;;;;5111428;28;20214;-82
2021/11/01 23:06:57;;;;;;;2.45;1.58;;;;;;;;;;5111111;28;20184;-82
2021/11/01 23:31:32;;;;;;;4.07;1.52;;;;;;;;;;5119851;28;20225;-83
2021/11/01 23:34:02;;;;;;;1.40;1.30;;;;;;;;;;5107844;28;20583;-83
2021/11/01 23:36:29;;;;;;;2.17;1.80;;;;;;;;;;5102426;28;20190;-83
2021/11/01 23:38:57;;;;;;;2.63;1.80;;;;;;;;;;5118859;28;20601;-82
2021/11/01 23:41:24;;;;;;;3.20;2.38;;;;;;;;;;5119464;28;20675;-83
2021/11/01 23:43:53;;;;;;;2.10;2.00;;;;;;;;;;5119429;28;20206;-83
2021/11/01 23:46:21;;;;;;;1.70;1.60;;;;;;;;;;5119460;28;20188;-82
2021/11/01 23:48:50;;;;;;;2.80;1.80;;;;;;;;;;5118782;28;20228;-83
2021/11/01 23:51:28;;;;;;;2.30;2.08;;;;;;;;;;5119310;28;20184;-82
2021/11/01 23:54:12;;;;;;;3.03;2.28;;;;;;;;;;5118458;28;20219;-82
2021/11/01 23:56:40;;;;;;;3.53;2.25;;;;;;;;;;5118887;28;20191;-82
2021/11/01 23:59:07;;;;;;;1.77;1.67;;;;;;;;;;5108670;28;20243;-83
